Kanopolis, KS (67454)

9:47 PM CST on February 12, 2016 (GMT -0600)
NonFedAWOS | | Change Station
CLOSE
Current Station
Personal Weather Station
Location: Ellsworth, KS
Elevation: 1614 ft
Nearby Weather Stations

Elev 1614 ft 38.75 °N, 98.23 °W | Updated 31 minutes ago

Overcast
Overcast
28 °F
Feels Like 18 °F
N
12
Wind Variable Wind from NE
Gusts 0.0 mph

Today
High -- | Low -- °F
--% Chance of Precip.
Yesterday
High -- | Low -- °F
Precip. -- in
Pressure 30.59 in
Visibility 10.0 miles
Clouds Overcast 11000 ft
Windchill 18 °F
Dew Point 21 °F
Humidity 74%
Rainfall in
Snow Depth Not available.
7:27 AM 6:06 PM
Waxing Crescent, 26% visible
METAR KSLN 130253Z 03008KT 10SM OVC110 00/M08 A3055 RMK AO2 SLP359 T00001078 51015
Pressure 30.59 in
Visibility 10.0 miles
Clouds Overcast 11000 ft
Windchill 18 °F
Dew Point 21 °F
Humidity 74%
Rainfall in
Snow Depth Not available.
7:27 AM 6:06 PM
Waxing Crescent, 26% visible
METAR KSLN 130253Z 03008KT 10SM OVC110 00/M08 A3055 RMK AO2 SLP359 T00001078 51015

10-Day Weather Forecast

Almanac

Astronomy

Feb. 12, 2016 Rise Set
Actual Time
Civil Twilight
Nautical Twilight
Astronomical Twilight
Moon
Length of Visible Light
Length of Day
Tomorrow will be .
, % of the Moon is Illuminated

Today's Extremes

State Highs State Lows

Community

WunderPhotos

Upload Photos

1,892,492 photos uploaded!

WunderBlog® & News

Nearby

Air Quality

  Air Quality AQ Index Pollutant
Not available.

Snow Depth

Station Depth Elevation

Earthquake Activity

City Distance Mag. Time & Date
Minimum magnitude displayed is 2.5.

Coastal Water Temperatures

Place Temperature

Stations

Nearby Weather Stations

Station Location Temp. Windchill Dew Point Humidity Wind Precip. Elev Updated Type
                   

Watches & Warnings

There are currently no watches in effect.